createdAt,value
2023-02-19T00:01:48.889Z,100.00
2023-02-19T00:04:18.232Z,100.00
2023-02-19T00:06:46.588Z,100.00
2023-02-19T00:09:19.069Z,100.00
2023-02-19T00:11:47.801Z,100.00
2023-02-19T00:14:18.616Z,100.00
2023-02-19T00:16:46.611Z,100.00
2023-02-19T00:19:16.188Z,100.00
2023-02-19T00:21:43.813Z,100.00
2023-02-19T00:24:13.058Z,100.00
2023-02-19T00:26:43.593Z,100.00
2023-02-19T00:29:14.824Z,100.00
2023-02-19T00:31:43.114Z,100.00
2023-02-19T00:34:11.518Z,100.00
2023-02-19T00:36:40.649Z,100.00
2023-02-19T00:39:09.885Z,100.00
2023-02-19T00:41:37.371Z,100.00
2023-02-19T00:44:08.613Z,100.00
2023-02-19T00:46:37.957Z,100.00
2023-02-19T00:49:06.708Z,100.00
2023-02-19T00:51:36.015Z,100.00
2023-02-19T00:54:04.129Z,100.00
2023-02-19T00:56:31.740Z,100.00
2023-02-19T00:58:59.254Z,100.00
2023-02-19T01:01:28.231Z,100.00
2023-02-19T01:03:55.767Z,100.00
2023-02-19T01:06:23.424Z,100.00
2023-02-19T01:08:51.158Z,100.00
2023-02-19T01:11:20.203Z,100.00
2023-02-19T01:13:47.716Z,100.00
2023-02-19T01:16:18.180Z,100.00
2023-02-19T01:18:47.633Z,100.00
2023-02-19T01:21:16.802Z,100.00
2023-02-19T01:23:44.932Z,100.00
2023-02-19T01:26:15.448Z,100.00
2023-02-19T01:28:43.212Z,100.00
2023-02-19T01:31:15.363Z,100.00
2023-02-19T01:33:47.683Z,100.00
2023-02-19T01:36:15.735Z,100.00
2023-02-19T01:38:43.740Z,100.00
2023-02-19T01:41:13.907Z,100.00
2023-02-19T01:43:59.492Z,100.00
2023-02-19T01:46:28.159Z,100.00
2023-02-19T01:49:00.176Z,100.00
2023-02-19T01:51:28.633Z,100.00
2023-02-19T01:54:00.043Z,100.00
2023-02-19T01:56:29.015Z,100.00
2023-02-19T01:58:57.996Z,100.00
2023-02-19T02:01:25.521Z,100.00
2023-02-19T02:03:53.313Z,100.00
2023-02-19T02:06:24.884Z,100.00
2023-02-19T02:09:11.873Z,100.00
2023-02-19T02:11:41.415Z,100.00
2023-02-19T02:14:08.960Z,100.00
2023-02-19T02:16:45.311Z,100.00
2023-02-19T02:19:32.970Z,100.00
2023-02-19T02:22:08.587Z,100.00
2023-02-19T02:25:07.414Z,100.00
2023-02-19T02:27:48.320Z,100.00
2023-02-19T02:30:32.897Z,100.00
2023-02-19T02:33:12.619Z,100.00
2023-02-19T02:35:45.503Z,100.00
2023-02-19T02:38:15.025Z,100.00
2023-02-19T02:40:45.237Z,100.00
2023-02-19T02:43:13.178Z,100.00
2023-02-19T02:45:42.465Z,100.00
2023-02-19T02:48:20.333Z,100.00
2023-02-19T02:50:53.045Z,100.00
2023-02-19T02:53:41.127Z,100.00
2023-02-19T02:56:11.325Z,100.00
2023-02-19T02:58:39.491Z,99.72
2023-02-19T03:01:30.127Z,99.40
2023-02-19T03:04:03.255Z,99.89
2023-02-19T03:06:34.551Z,99.98
2023-02-19T03:09:10.221Z,99.11
2023-02-19T03:11:58.602Z,99.15
2023-02-19T03:14:50.914Z,99.11
2023-02-19T03:17:42.368Z,99.15
2023-02-19T03:20:14.650Z,98.82
2023-02-19T03:22:45.659Z,99.32
2023-02-19T03:25:34.951Z,99.80
2023-02-19T03:28:04.801Z,100.00
2023-02-19T03:30:35.928Z,100.00
2023-02-19T03:33:10.550Z,100.00
2023-02-19T03:35:42.244Z,100.00
2023-02-19T03:38:18.511Z,100.00
2023-02-19T03:40:55.364Z,100.00
2023-02-19T03:43:28.215Z,100.00
2023-02-19T03:46:04.210Z,100.00
2023-02-19T03:48:35.681Z,100.00
2023-02-19T03:51:18.978Z,100.00
2023-02-19T03:53:54.747Z,100.00
2023-02-19T03:56:29.558Z,100.00
2023-02-19T03:59:01.478Z,100.00
2023-02-19T04:01:33.332Z,100.00
2023-02-19T04:04:08.938Z,100.00
2023-02-19T04:06:38.797Z,100.00
2023-02-19T04:09:12.398Z,100.00
2023-02-19T04:11:40.213Z,100.00
2023-02-19T04:14:11.788Z,100.00
2023-02-19T04:16:42.894Z,100.00
2023-02-19T04:19:15.059Z,100.00
2023-02-19T04:21:44.125Z,100.00
2023-02-19T04:24:17.431Z,100.00
2023-02-19T04:26:46.040Z,100.00
2023-02-19T04:29:13.487Z,100.00
2023-02-19T04:31:41.147Z,100.00
2023-02-19T04:34:08.666Z,100.00
2023-02-19T04:36:37.479Z,100.00
2023-02-19T04:39:05.153Z,100.00
2023-02-19T04:41:32.586Z,100.00
2023-02-19T04:44:00.028Z,100.00
2023-02-19T04:46:27.508Z,100.00
2023-02-19T04:48:55.037Z,99.56
2023-02-19T04:51:22.537Z,99.24
2023-02-19T04:53:51.357Z,98.76
2023-02-19T04:56:19.160Z,99.74
2023-02-19T04:58:46.623Z,99.55
2023-02-19T05:01:14.587Z,98.61
2023-02-19T05:03:42.430Z,98.75
2023-02-19T05:06:11.726Z,98.57
2023-02-19T05:08:39.351Z,98.67
2023-02-19T05:11:11.114Z,98.54
2023-02-19T05:13:38.793Z,98.98
2023-02-19T05:16:08.673Z,99.50
2023-02-19T05:18:36.186Z,99.57
2023-02-19T05:21:03.664Z,99.88
2023-02-19T05:23:31.115Z,99.94
2023-02-19T05:25:58.534Z,100.00
2023-02-19T05:28:29.381Z,100.00
2023-02-19T05:30:57.857Z,100.00
2023-02-19T05:33:26.839Z,100.00
2023-02-19T05:35:56.607Z,100.00
2023-02-19T05:38:25.081Z,100.00
2023-02-19T05:40:52.586Z,100.00
2023-02-19T05:43:19.993Z,100.00
2023-02-19T05:45:48.747Z,100.00
2023-02-19T05:48:16.486Z,100.00
2023-02-19T05:50:43.903Z,100.00
2023-02-19T05:53:11.446Z,100.00
2023-02-19T05:55:38.878Z,100.00
2023-02-19T05:58:06.330Z,100.00
2023-02-19T06:00:34.879Z,100.00
2023-02-19T06:03:03.635Z,100.00
2023-02-19T06:05:31.119Z,100.00
2023-02-19T06:07:58.564Z,100.00
2023-02-19T06:10:25.984Z,100.00
2023-02-19T06:12:54.234Z,100.00
2023-02-19T06:15:21.976Z,100.00
2023-02-19T06:17:49.984Z,100.00
2023-02-19T06:20:19.082Z,100.00
2023-02-19T06:22:46.489Z,100.00
2023-02-19T06:25:13.901Z,100.00
2023-02-19T06:27:41.324Z,100.00
2023-02-19T06:30:10.077Z,100.00
2023-02-19T06:32:37.581Z,100.00
2023-02-19T06:35:05.651Z,100.00
2023-02-19T06:37:34.447Z,100.00
2023-02-19T06:40:01.896Z,100.00
2023-02-19T06:42:32.664Z,100.00
2023-02-19T06:45:00.132Z,100.00
2023-02-19T06:47:27.609Z,100.00
2023-02-19T06:49:55.051Z,100.00
2023-02-19T06:52:22.469Z,100.00
2023-02-19T06:54:51.243Z,100.00
2023-02-19T06:57:19.702Z,100.00
2023-02-19T06:59:47.169Z,100.00
2023-02-19T07:02:14.707Z,100.00
2023-02-19T07:04:42.125Z,100.00
2023-02-19T07:07:12.526Z,100.00
2023-02-19T07:09:39.950Z,99.79
2023-02-19T07:12:09.979Z,99.95
2023-02-19T07:14:37.414Z,99.76
2023-02-19T07:17:04.828Z,99.42
2023-02-19T07:19:32.308Z,99.40
2023-02-19T07:21:59.744Z,99.47
2023-02-19T07:24:27.184Z,100.00
2023-02-19T07:26:54.649Z,99.69
2023-02-19T07:29:23.669Z,98.93
2023-02-19T07:31:51.134Z,98.63
2023-02-19T07:34:18.588Z,98.68
2023-02-19T07:36:46.035Z,98.99
2023-02-19T07:39:15.511Z,98.80
2023-02-19T07:41:42.920Z,98.29
2023-02-19T07:44:13.369Z,97.87
2023-02-19T07:46:42.183Z,98.30
2023-02-19T07:49:09.736Z,98.35
2023-02-19T07:51:39.740Z,98.06
2023-02-19T07:54:07.643Z,98.22
2023-02-19T07:56:35.132Z,98.15
2023-02-19T07:59:02.556Z,99.12
2023-02-19T08:01:43.935Z,98.94
2023-02-19T08:04:14.930Z,99.64
2023-02-19T08:06:42.869Z,100.00
2023-02-19T08:09:10.563Z,100.00
2023-02-19T08:11:55.824Z,100.00
2023-02-19T08:14:25.970Z,100.00
2023-02-19T08:16:54.148Z,100.00
2023-02-19T08:19:23.164Z,100.00
2023-02-19T08:21:50.857Z,100.00
2023-02-19T08:24:18.285Z,100.00
2023-02-19T08:26:45.839Z,100.00
2023-02-19T08:29:13.368Z,100.00
2023-02-19T08:31:40.952Z,100.00
2023-02-19T08:34:08.422Z,100.00
2023-02-19T08:36:37.180Z,100.00
2023-02-19T08:39:04.745Z,100.00
2023-02-19T08:41:32.161Z,100.00
2023-02-19T08:43:59.570Z,100.00
2023-02-19T08:46:27.022Z,100.00
2023-02-19T08:48:54.461Z,100.00
2023-02-19T08:51:21.929Z,98.96
2023-02-19T08:53:50.713Z,99.46
2023-02-19T08:56:18.627Z,99.35
2023-02-19T08:58:46.539Z,99.47
2023-02-19T09:01:16.241Z,99.26
2023-02-19T09:03:44.199Z,99.15
2023-02-19T09:06:15.583Z,98.66
2023-02-19T09:08:43.040Z,98.13
2023-02-19T09:11:12.178Z,98.31
2023-02-19T09:13:39.778Z,97.85
2023-02-19T09:16:07.297Z,98.50
2023-02-19T09:18:35.321Z,98.68
2023-02-19T09:21:04.446Z,98.49
2023-02-19T09:23:33.462Z,98.48
2023-02-19T09:26:03.099Z,98.13
2023-02-19T09:28:31.884Z,98.10
2023-02-19T09:31:04.931Z,97.64
2023-02-19T09:33:32.579Z,97.26
2023-02-19T09:36:00.228Z,97.39
2023-02-19T09:38:27.694Z,97.34
2023-02-19T09:40:55.121Z,97.57
2023-02-19T09:43:27.430Z,97.05
2023-02-19T09:46:23.394Z,96.54
2023-02-19T09:48:51.972Z,97.46
2023-02-19T09:51:19.768Z,97.01
2023-02-19T09:53:51.178Z,96.95
2023-02-19T09:56:18.784Z,97.06
2023-02-19T09:58:49.674Z,97.29
2023-02-19T10:01:19.760Z,96.30
2023-02-19T10:03:49.455Z,96.73
2023-02-19T10:06:21.634Z,97.21
2023-02-19T10:08:50.607Z,96.72
2023-02-19T10:11:18.621Z,96.89
2023-02-19T10:13:49.932Z,96.88
2023-02-19T10:16:22.628Z,95.87
2023-02-19T10:18:50.281Z,96.88
2023-02-19T10:21:21.407Z,97.49
2023-02-19T10:23:52.308Z,96.91
2023-02-19T10:26:20.815Z,97.91
2023-02-19T10:28:48.274Z,97.66
2023-02-19T10:31:20.887Z,98.78
2023-02-19T10:33:51.156Z,98.55
2023-02-19T10:36:29.232Z,98.73
2023-02-19T10:38:58.692Z,98.19
2023-02-19T10:41:28.024Z,98.45
2023-02-19T10:43:59.327Z,98.05
2023-02-19T10:46:30.786Z,97.88
2023-02-19T10:49:00.384Z,97.65
2023-02-19T10:51:34.028Z,98.20
2023-02-19T10:54:07.444Z,96.09
2023-02-19T10:56:35.068Z,95.45
2023-02-19T10:59:23.154Z,96.56
2023-02-19T11:02:00.471Z,95.68
2023-02-19T11:04:29.860Z,94.85
2023-02-19T11:06:58.235Z,95.57
2023-02-19T11:09:29.391Z,93.70
2023-02-19T11:11:59.227Z,94.22
2023-02-19T11:14:28.878Z,93.97
2023-02-19T11:16:59.789Z,95.28
2023-02-19T11:19:37.282Z,95.79
2023-02-19T11:22:20.724Z,96.09
2023-02-19T11:24:50.980Z,97.24
2023-02-19T11:27:21.523Z,97.27
2023-02-19T11:29:49.533Z,96.54
2023-02-19T11:32:30.641Z,97.29
2023-02-19T11:35:19.617Z,97.97
2023-02-19T11:37:58.926Z,95.85
2023-02-19T11:40:38.866Z,94.96
2023-02-19T11:43:19.390Z,95.51
2023-02-19T11:45:53.038Z,95.31
2023-02-19T11:48:32.803Z,95.51
2023-02-19T11:51:21.286Z,97.16
2023-02-19T11:53:55.762Z,98.64
2023-02-19T11:56:33.864Z,99.40
2023-02-19T11:59:04.803Z,100.00
2023-02-19T12:02:07.441Z,99.88
2023-02-19T12:05:01.467Z,100.00
2023-02-19T12:07:54.037Z,100.00
2023-02-19T12:10:29.352Z,100.00
2023-02-19T12:13:09.466Z,100.00
2023-02-19T12:15:53.221Z,100.00
2023-02-19T12:18:54.330Z,100.00
2023-02-19T12:21:35.284Z,99.52
2023-02-19T12:24:21.461Z,98.80
2023-02-19T12:27:00.287Z,99.16
2023-02-19T12:29:52.808Z,98.39
2023-02-19T12:32:41.052Z,98.04
2023-02-19T12:35:47.289Z,99.36
2023-02-19T12:38:23.234Z,98.28
2023-02-19T12:41:13.001Z,97.32
2023-02-19T12:43:45.826Z,97.55
2023-02-19T12:46:17.047Z,98.77
2023-02-19T12:48:52.734Z,97.43
2023-02-19T12:51:24.148Z,96.51
2023-02-19T12:53:56.955Z,97.65
2023-02-19T12:56:29.634Z,97.43
2023-02-19T12:59:02.011Z,96.97
2023-02-19T13:01:41.524Z,98.00
2023-02-19T13:04:21.490Z,98.53
2023-02-19T13:06:54.680Z,97.66
2023-02-19T13:09:30.465Z,98.21
2023-02-19T13:12:02.731Z,98.97
2023-02-19T13:14:35.042Z,98.97
2023-02-19T13:17:20.850Z,99.03
2023-02-19T13:19:51.626Z,99.55
2023-02-19T13:22:44.929Z,99.41
2023-02-19T13:25:16.418Z,99.32
2023-02-19T13:28:19.142Z,100.00
2023-02-19T13:31:19.480Z,100.00
2023-02-19T13:33:59.456Z,100.00
2023-02-19T13:36:28.114Z,100.00
2023-02-19T13:38:58.015Z,100.00
2023-02-19T13:41:32.295Z,100.00
2023-02-19T13:44:03.342Z,100.00
2023-02-19T13:46:37.677Z,100.00
2023-02-19T13:49:44.308Z,100.00
2023-02-19T13:52:42.773Z,99.97
2023-02-19T13:55:51.955Z,100.00
2023-02-19T13:59:01.296Z,98.89
2023-02-19T14:02:05.634Z,98.44
2023-02-19T14:04:50.184Z,98.22
2023-02-19T14:07:52.372Z,98.76
2023-02-19T14:10:57.954Z,98.42
2023-02-19T14:14:09.497Z,98.17
2023-02-19T14:17:07.378Z,99.00
2023-02-19T14:19:50.084Z,98.27
2023-02-19T14:23:03.357Z,98.65
2023-02-19T14:25:53.341Z,99.64
2023-02-19T14:28:29.854Z,98.87
2023-02-19T14:31:00.828Z,98.84
2023-02-19T14:33:30.628Z,99.11
2023-02-19T14:36:05.617Z,98.86
2023-02-19T14:38:37.953Z,99.09
2023-02-19T14:41:07.144Z,98.85
2023-02-19T14:43:36.082Z,98.73
2023-02-19T14:46:08.910Z,98.76
2023-02-19T14:48:40.061Z,98.37
2023-02-19T14:51:15.526Z,98.25
2023-02-19T14:53:46.284Z,97.60
2023-02-19T14:56:21.936Z,97.87
2023-02-19T14:59:06.733Z,98.06
2023-02-19T15:01:34.187Z,98.69
2023-02-19T15:04:03.545Z,98.23
2023-02-19T15:06:33.285Z,98.27
2023-02-19T15:09:05.980Z,98.68
2023-02-19T15:11:35.812Z,97.67
2023-02-19T15:14:05.971Z,98.30
2023-02-19T15:16:36.944Z,98.55
2023-02-19T15:19:07.409Z,98.65
2023-02-19T15:21:40.177Z,97.59
2023-02-19T15:24:08.254Z,97.27
2023-02-19T15:26:38.284Z,96.68
2023-02-19T15:29:11.653Z,96.79
2023-02-19T15:31:45.879Z,96.89
2023-02-19T15:34:17.697Z,97.80
2023-02-19T15:36:47.542Z,98.21
2023-02-19T15:39:20.706Z,98.74
2023-02-19T15:41:54.436Z,99.49
2023-02-19T15:44:35.329Z,100.00
2023-02-19T15:47:10.418Z,100.00
2023-02-19T15:49:44.918Z,100.00
2023-02-19T15:52:22.585Z,100.00
2023-02-19T15:54:56.157Z,100.00
2023-02-19T15:57:27.193Z,100.00
2023-02-19T16:00:01.997Z,100.00
2023-02-19T16:02:29.976Z,100.00
2023-02-19T16:04:58.208Z,100.00
2023-02-19T16:07:28.882Z,100.00
2023-02-19T16:10:20.780Z,100.00
2023-02-19T16:12:58.907Z,100.00
2023-02-19T16:15:27.604Z,100.00
2023-02-19T16:17:55.798Z,100.00
2023-02-19T16:20:27.525Z,100.00
2023-02-19T16:23:02.362Z,100.00
2023-02-19T16:25:37.462Z,100.00
2023-02-19T16:28:12.994Z,100.00
2023-02-19T16:30:40.897Z,100.00
2023-02-19T16:33:22.811Z,100.00
2023-02-19T16:35:52.177Z,100.00
2023-02-19T16:38:21.674Z,100.00
2023-02-19T16:41:13.669Z,100.00
2023-02-19T16:43:43.007Z,100.00
2023-02-19T16:46:12.842Z,100.00
2023-02-19T16:48:40.506Z,100.00
2023-02-19T16:51:09.032Z,100.00
2023-02-19T16:53:37.906Z,100.00
2023-02-19T16:56:05.860Z,99.82
2023-02-19T16:58:33.257Z,99.67
2023-02-19T17:01:01.602Z,99.75
2023-02-19T17:03:29.106Z,100.00
2023-02-19T17:05:57.379Z,100.00
2023-02-19T17:08:33.787Z,99.55
2023-02-19T17:11:04.412Z,99.90
2023-02-19T17:13:31.894Z,99.97
2023-02-19T17:15:59.979Z,100.00
2023-02-19T17:18:27.981Z,100.00
2023-02-19T17:21:00.340Z,100.00
2023-02-19T17:23:27.747Z,100.00
2023-02-19T17:25:55.208Z,100.00
2023-02-19T17:28:23.973Z,100.00
2023-02-19T17:30:51.389Z,100.00
2023-02-19T17:33:18.814Z,100.00
2023-02-19T17:35:46.252Z,100.00
2023-02-19T17:38:14.308Z,99.53
2023-02-19T17:40:42.053Z,99.40
2023-02-19T17:43:09.476Z,99.74
2023-02-19T17:45:38.239Z,99.49
2023-02-19T17:48:06.512Z,98.89
2023-02-19T17:50:33.983Z,99.18
2023-02-19T17:53:01.426Z,99.21
2023-02-19T17:55:28.907Z,99.13
2023-02-19T17:57:56.447Z,99.11
2023-02-19T18:00:26.233Z,98.78
2023-02-19T18:02:55.643Z,98.93
2023-02-19T18:05:23.991Z,99.03
2023-02-19T18:07:51.659Z,99.08
2023-02-19T18:10:20.682Z,99.28
2023-02-19T18:12:48.350Z,98.98
2023-02-19T18:15:18.329Z,98.51
2023-02-19T18:17:45.939Z,98.56
2023-02-19T18:20:16.750Z,98.15
2023-02-19T18:22:44.185Z,98.34
2023-02-19T18:25:12.016Z,98.05
2023-02-19T18:27:39.573Z,98.27
2023-02-19T18:30:08.428Z,98.08
2023-02-19T18:32:36.016Z,97.78
2023-02-19T18:35:03.990Z,97.65
2023-02-19T18:37:33.773Z,98.27
2023-02-19T18:40:02.369Z,98.23
2023-02-19T18:42:30.036Z,98.57
2023-02-19T18:44:57.572Z,97.61
2023-02-19T18:47:26.692Z,97.50
2023-02-19T18:49:56.860Z,97.61
2023-02-19T18:52:26.073Z,97.84
2023-02-19T18:54:57.193Z,97.53
2023-02-19T18:57:26.026Z,97.22
2023-02-19T18:59:53.775Z,96.95
2023-02-19T19:02:21.678Z,96.86
2023-02-19T19:04:54.516Z,97.19
2023-02-19T19:07:22.606Z,97.03
2023-02-19T19:09:52.294Z,96.72
2023-02-19T19:12:21.615Z,96.15
2023-02-19T19:14:50.473Z,95.94
2023-02-19T19:17:18.020Z,95.97
2023-02-19T19:19:48.118Z,95.96
2023-02-19T19:22:22.636Z,96.65
2023-02-19T19:24:50.323Z,97.25
2023-02-19T19:27:19.363Z,97.38
2023-02-19T19:29:49.642Z,96.87
2023-02-19T19:32:17.527Z,96.70
2023-02-19T19:34:45.796Z,97.39
2023-02-19T19:37:13.370Z,97.56
2023-02-19T19:39:42.931Z,97.49
2023-02-19T19:42:14.561Z,97.28
2023-02-19T19:44:44.381Z,97.40
2023-02-19T19:47:13.411Z,97.76
2023-02-19T19:49:44.366Z,98.01
2023-02-19T19:52:12.063Z,97.81
2023-02-19T19:54:43.441Z,97.78
2023-02-19T19:57:12.975Z,97.17
2023-02-19T19:59:40.965Z,97.68
2023-02-19T20:02:13.313Z,97.22
2023-02-19T20:04:44.934Z,97.06
2023-02-19T20:07:12.733Z,96.83
2023-02-19T20:09:40.393Z,96.82
2023-02-19T20:12:08.634Z,95.31
2023-02-19T20:14:41.847Z,95.08
2023-02-19T20:17:13.095Z,94.79
2023-02-19T20:19:40.912Z,95.03
2023-02-19T20:22:08.576Z,96.00
2023-02-19T20:24:36.242Z,96.10
2023-02-19T20:27:08.545Z,95.43
2023-02-19T20:29:40.077Z,95.47
2023-02-19T20:32:09.091Z,95.83
2023-02-19T20:34:39.830Z,95.74
2023-02-19T20:37:08.398Z,95.92
2023-02-19T20:39:39.384Z,95.98
2023-02-19T20:42:08.970Z,96.18
2023-02-19T20:44:36.669Z,95.63
2023-02-19T20:47:04.877Z,95.72
2023-02-19T20:49:34.465Z,96.03
2023-02-19T20:52:07.249Z,96.54
2023-02-19T20:54:36.271Z,96.22
2023-02-19T20:57:05.478Z,96.26
2023-02-19T20:59:35.728Z,96.58
2023-02-19T21:02:05.176Z,96.69
2023-02-19T21:04:34.599Z,96.72
2023-02-19T21:07:03.683Z,96.80
2023-02-19T21:09:32.079Z,97.34
2023-02-19T21:11:59.962Z,97.55
2023-02-19T21:14:27.815Z,97.51
2023-02-19T21:16:55.495Z,98.00
2023-02-19T21:19:23.478Z,97.50
2023-02-19T21:21:53.268Z,96.61
2023-02-19T21:24:22.295Z,96.57
2023-02-19T21:26:50.169Z,96.71
2023-02-19T21:29:19.581Z,96.94
2023-02-19T21:31:50.353Z,97.36
2023-02-19T21:34:20.643Z,97.18
2023-02-19T21:36:48.221Z,97.33
2023-02-19T21:39:18.173Z,97.62
2023-02-19T21:41:47.192Z,97.95
2023-02-19T21:44:14.734Z,97.72
2023-02-19T21:46:42.614Z,97.84
2023-02-19T21:49:10.730Z,97.77
2023-02-19T21:51:41.002Z,97.47
2023-02-19T21:54:09.872Z,97.51
2023-02-19T21:56:38.044Z,97.67
2023-02-19T21:59:06.926Z,98.02
2023-02-19T22:01:38.482Z,98.17
2023-02-19T22:04:06.283Z,98.50
2023-02-19T22:06:34.119Z,98.49
2023-02-19T22:09:02.572Z,98.39
2023-02-19T22:11:30.050Z,98.49
2023-02-19T22:13:57.554Z,98.48
2023-02-19T22:16:26.829Z,98.72
2023-02-19T22:18:56.636Z,98.92
2023-02-19T22:21:26.081Z,98.89
2023-02-19T22:23:54.854Z,98.99
2023-02-19T22:26:25.063Z,99.24
2023-02-19T22:28:53.274Z,99.67
2023-02-19T22:31:23.531Z,100.00
2023-02-19T22:33:52.693Z,100.00
2023-02-19T22:36:21.861Z,100.00
2023-02-19T22:38:49.825Z,99.99
2023-02-19T22:41:18.614Z,100.00
2023-02-19T22:43:46.552Z,100.00
2023-02-19T22:46:17.297Z,100.00
2023-02-19T22:48:44.796Z,100.00
2023-02-19T22:51:15.598Z,100.00
2023-02-19T22:53:46.350Z,100.00
2023-02-19T22:56:15.927Z,100.00
2023-02-19T22:58:43.666Z,100.00
2023-02-19T23:01:11.907Z,100.00
2023-02-19T23:03:46.543Z,100.00
2023-02-19T23:06:15.946Z,100.00
2023-02-19T23:08:43.901Z,100.00
2023-02-19T23:11:12.059Z,100.00
2023-02-19T23:13:41.798Z,100.00
2023-02-19T23:16:09.565Z,100.00
2023-02-19T23:18:37.203Z,100.00
2023-02-19T23:21:04.836Z,100.00
2023-02-19T23:23:33.703Z,100.00
2023-02-19T23:26:01.210Z,100.00
2023-02-19T23:28:28.665Z,100.00
2023-02-19T23:30:56.238Z,100.00
2023-02-19T23:33:23.821Z,100.00
2023-02-19T23:35:51.302Z,100.00
2023-02-19T23:38:18.956Z,100.00
2023-02-19T23:40:47.741Z,100.00
2023-02-19T23:43:15.227Z,100.00
2023-02-19T23:45:42.769Z,100.00
2023-02-19T23:48:10.510Z,99.63
2023-02-19T23:50:37.982Z,99.68
2023-02-19T23:53:06.054Z,99.77
2023-02-19T23:55:33.490Z,99.58
2023-02-19T23:58:02.348Z,99.76
